sensor_id;sensor_type;location;lat;lon;timestamp;P1;durP1;ratioP1;P2;durP2;ratioP2
48963;SDS011;34776;48.180;16.420;2023-06-10T00:00:41;6.25;;;4.40;;
48963;SDS011;34776;48.180;16.420;2023-06-10T00:03:07;4.70;;;4.25;;
48963;SDS011;34776;48.180;16.420;2023-06-10T00:56:26;5.13;;;4.60;;
48963;SDS011;34776;48.180;16.420;2023-06-10T00:58:53;5.63;;;4.60;;
48963;SDS011;34776;48.180;16.420;2023-06-10T01:01:18;4.80;;;4.40;;
48963;SDS011;34776;48.180;16.420;2023-06-10T01:03:44;4.57;;;4.05;;
48963;SDS011;34776;48.180;16.420;2023-06-10T01:19:31;6.13;;;4.38;;
48963;SDS011;34776;48.180;16.420;2023-06-10T01:21:58;6.68;;;4.50;;
48963;SDS011;34776;48.180;16.420;2023-06-10T01:24:26;5.18;;;4.50;;
48963;SDS011;34776;48.180;16.420;2023-06-10T01:29:36;5.35;;;4.88;;
48963;SDS011;34776;48.180;16.420;2023-06-10T01:50:41;6.40;;;5.80;;
48963;SDS011;34776;48.180;16.420;2023-06-10T01:53:06;6.93;;;5.88;;
48963;SDS011;34776;48.180;16.420;2023-06-10T02:28:25;8.93;;;7.85;;
48963;SDS011;34776;48.180;16.420;2023-06-10T02:30:51;9.32;;;7.60;;
48963;SDS011;34776;48.180;16.420;2023-06-10T02:33:16;8.93;;;8.13;;
48963;SDS011;34776;48.180;16.420;2023-06-10T02:35:42;9.25;;;8.25;;
48963;SDS011;34776;48.180;16.420;2023-06-10T02:38:08;10.88;;;9.77;;
48963;SDS011;34776;48.180;16.420;2023-06-10T03:08:44;10.40;;;9.15;;
48963;SDS011;34776;48.180;16.420;2023-06-10T03:18:56;10.23;;;9.23;;
48963;SDS011;34776;48.180;16.420;2023-06-10T03:21:21;10.38;;;8.48;;
48963;SDS011;34776;48.180;16.420;2023-06-10T03:26:22;9.20;;;8.18;;
48963;SDS011;34776;48.180;16.420;2023-06-10T03:31:23;11.40;;;10.00;;
48963;SDS011;34776;48.180;16.420;2023-06-10T03:52:51;10.13;;;9.13;;
48963;SDS011;34776;48.180;16.420;2023-06-10T03:55:16;10.48;;;9.48;;
48963;SDS011;34776;48.180;16.420;2023-06-10T03:57:42;10.50;;;9.38;;
48963;SDS011;34776;48.180;16.420;2023-06-10T04:00:08;10.50;;;9.40;;
48963;SDS011;34776;48.180;16.420;2023-06-10T04:15:33;10.73;;;9.63;;
48963;SDS011;34776;48.180;16.420;2023-06-10T04:17:58;13.00;;;9.35;;
48963;SDS011;34776;48.180;16.420;2023-06-10T04:20:24;11.52;;;10.43;;
48963;SDS011;34776;48.180;16.420;2023-06-10T04:22:50;12.43;;;11.23;;
48963;SDS011;34776;48.180;16.420;2023-06-10T04:25:15;11.95;;;10.45;;
48963;SDS011;34776;48.180;16.420;2023-06-10T04:27:41;11.15;;;9.70;;
48963;SDS011;34776;48.180;16.420;2023-06-10T04:30:06;14.52;;;9.88;;
48963;SDS011;34776;48.180;16.420;2023-06-10T04:32:32;14.02;;;11.93;;
48963;SDS011;34776;48.180;16.420;2023-06-10T04:47:53;14.45;;;12.57;;
48963;SDS011;34776;48.180;16.420;2023-06-10T04:50:20;12.63;;;10.07;;
48963;SDS011;34776;48.180;16.420;2023-06-10T04:52:46;12.73;;;11.43;;
48963;SDS011;34776;48.180;16.420;2023-06-10T04:55:11;11.70;;;10.50;;
48963;SDS011;34776;48.180;16.420;2023-06-10T04:57:36;19.45;;;17.50;;
48963;SDS011;34776;48.180;16.420;2023-06-10T05:15:33;13.23;;;12.02;;
48963;SDS011;34776;48.180;16.420;2023-06-10T05:17:58;15.63;;;14.02;;
48963;SDS011;34776;48.180;16.420;2023-06-10T06:06:07;17.40;;;15.48;;
48963;SDS011;34776;48.180;16.420;2023-06-10T06:11:07;17.63;;;15.73;;
48963;SDS011;34776;48.180;16.420;2023-06-10T06:13:34;17.52;;;15.77;;
48963;SDS011;34776;48.180;16.420;2023-06-10T06:55:12;18.73;;;15.80;;
48963;SDS011;34776;48.180;16.420;2023-06-10T07:00:07;21.95;;;18.10;;
48963;SDS011;34776;48.180;16.420;2023-06-10T07:31:01;14.50;;;13.10;;
48963;SDS011;34776;48.180;16.420;2023-06-10T07:33:26;19.10;;;16.73;;
48963;SDS011;34776;48.180;16.420;2023-06-10T07:35:52;17.88;;;15.98;;
48963;SDS011;34776;48.180;16.420;2023-06-10T07:38:17;21.38;;;17.10;;
48963;SDS011;34776;48.180;16.420;2023-06-10T07:45:53;18.73;;;16.83;;
48963;SDS011;34776;48.180;16.420;2023-06-10T07:48:18;20.45;;;18.35;;
48963;SDS011;34776;48.180;16.420;2023-06-10T08:24:27;16.17;;;14.63;;
48963;SDS011;34776;48.180;16.420;2023-06-10T08:57:23;18.35;;;15.68;;
48963;SDS011;34776;48.180;16.420;2023-06-10T08:59:48;19.08;;;15.50;;
48963;SDS011;34776;48.180;16.420;2023-06-10T09:02:15;15.68;;;14.05;;
48963;SDS011;34776;48.180;16.420;2023-06-10T10:35:16;14.90;;;10.35;;
48963;SDS011;34776;48.180;16.420;2023-06-10T10:37:46;10.25;;;9.25;;
48963;SDS011;34776;48.180;16.420;2023-06-10T10:40:12;11.07;;;8.25;;
48963;SDS011;34776;48.180;16.420;2023-06-10T10:42:38;9.77;;;8.77;;
48963;SDS011;34776;48.180;16.420;2023-06-10T10:45:05;8.57;;;7.65;;
48963;SDS011;34776;48.180;16.420;2023-06-10T10:47:32;9.93;;;8.93;;
48963;SDS011;34776;48.180;16.420;2023-06-10T10:50:00;11.00;;;8.65;;
48963;SDS011;34776;48.180;16.420;2023-06-10T10:52:28;8.50;;;7.60;;
48963;SDS011;34776;48.180;16.420;2023-06-10T10:55:15;10.15;;;7.90;;
48963;SDS011;34776;48.180;16.420;2023-06-10T10:57:41;12.82;;;8.90;;
48963;SDS011;34776;48.180;16.420;2023-06-10T11:00:06;10.35;;;8.10;;
48963;SDS011;34776;48.180;16.420;2023-06-10T11:02:35;8.88;;;8.05;;
48963;SDS011;34776;48.180;16.420;2023-06-10T11:05:09;9.00;;;8.10;;
48963;SDS011;34776;48.180;16.420;2023-06-10T12:26:57;8.15;;;7.35;;
48963;SDS011;34776;48.180;16.420;2023-06-10T12:42:18;11.38;;;7.55;;
48963;SDS011;34776;48.180;16.420;2023-06-10T12:44:47;11.55;;;7.95;;
48963;SDS011;34776;48.180;16.420;2023-06-10T12:47:18;9.85;;;8.70;;
48963;SDS011;34776;48.180;16.420;2023-06-10T13:10:37;10.23;;;9.23;;
48963;SDS011;34776;48.180;16.420;2023-06-10T13:18:12;9.50;;;8.60;;
48963;SDS011;34776;48.180;16.420;2023-06-10T13:32:58;8.95;;;7.25;;
48963;SDS011;34776;48.180;16.420;2023-06-10T13:35:24;7.93;;;7.00;;
48963;SDS011;34776;48.180;16.420;2023-06-10T13:54:09;10.05;;;7.72;;
48963;SDS011;34776;48.180;16.420;2023-06-10T13:56:34;8.88;;;8.07;;
48963;SDS011;34776;48.180;16.420;2023-06-10T13:59:03;9.75;;;8.75;;
48963;SDS011;34776;48.180;16.420;2023-06-10T14:01:28;16.60;;;8.07;;
48963;SDS011;34776;48.180;16.420;2023-06-10T14:03:54;9.65;;;8.75;;
48963;SDS011;34776;48.180;16.420;2023-06-10T14:06:19;10.40;;;8.68;;
48963;SDS011;34776;48.180;16.420;2023-06-10T14:37:11;12.27;;;11.02;;
48963;SDS011;34776;48.180;16.420;2023-06-10T14:39:37;9.35;;;8.40;;
48963;SDS011;34776;48.180;16.420;2023-06-10T14:42:02;9.63;;;8.73;;
48963;SDS011;34776;48.180;16.420;2023-06-10T15:00:54;9.25;;;8.23;;
48963;SDS011;34776;48.180;16.420;2023-06-10T15:03:20;10.98;;;9.98;;
48963;SDS011;34776;48.180;16.420;2023-06-10T15:05:45;10.82;;;8.38;;
48963;SDS011;34776;48.180;16.420;2023-06-10T15:08:11;9.25;;;8.35;;
48963;SDS011;34776;48.180;16.420;2023-06-10T15:10:36;8.75;;;7.53;;
48963;SDS011;34776;48.180;16.420;2023-06-10T15:36:02;6.65;;;6.05;;
48963;SDS011;34776;48.180;16.420;2023-06-10T15:38:27;6.70;;;5.38;;
48963;SDS011;34776;48.180;16.420;2023-06-10T15:52:09;9.82;;;6.35;;
48963;SDS011;34776;48.180;16.420;2023-06-10T16:02:20;10.77;;;9.68;;
48963;SDS011;34776;48.180;16.420;2023-06-10T16:04:45;11.07;;;9.98;;
48963;SDS011;34776;48.180;16.420;2023-06-10T16:07:11;11.32;;;9.68;;
48963;SDS011;34776;48.180;16.420;2023-06-10T16:09:36;12.85;;;10.02;;
48963;SDS011;34776;48.180;16.420;2023-06-10T16:14:38;14.77;;;13.25;;
48963;SDS011;34776;48.180;16.420;2023-06-10T16:17:04;13.25;;;11.82;;
48963;SDS011;34776;48.180;16.420;2023-06-10T16:19:29;13.07;;;11.50;;
48963;SDS011;34776;48.180;16.420;2023-06-10T16:21:55;15.90;;;11.68;;
48963;SDS011;34776;48.180;16.420;2023-06-10T16:24:20;12.02;;;10.55;;
48963;SDS011;34776;48.180;16.420;2023-06-10T16:26:45;12.27;;;10.88;;
48963;SDS011;34776;48.180;16.420;2023-06-10T16:29:15;12.25;;;10.25;;
48963;SDS011;34776;48.180;16.420;2023-06-10T16:31:40;11.65;;;10.45;;
48963;SDS011;34776;48.180;16.420;2023-06-10T16:34:06;11.88;;;10.63;;
48963;SDS011;34776;48.180;16.420;2023-06-10T16:54:37;11.57;;;8.75;;
48963;SDS011;34776;48.180;16.420;2023-06-10T16:57:03;11.63;;;9.57;;
48963;SDS011;34776;48.180;16.420;2023-06-10T16:59:28;10.85;;;9.77;;
48963;SDS011;34776;48.180;16.420;2023-06-10T17:10:47;11.82;;;10.55;;
48963;SDS011;34776;48.180;16.420;2023-06-10T17:13:12;11.80;;;10.65;;
48963;SDS011;34776;48.180;16.420;2023-06-10T17:15:37;11.68;;;10.48;;
48963;SDS011;34776;48.180;16.420;2023-06-10T17:18:03;13.77;;;12.23;;
48963;SDS011;34776;48.180;16.420;2023-06-10T17:20:28;12.20;;;11.02;;
48963;SDS011;34776;48.180;16.420;2023-06-10T17:22:55;12.23;;;11.02;;
48963;SDS011;34776;48.180;16.420;2023-06-10T17:25:21;12.25;;;11.05;;
48963;SDS011;34776;48.180;16.420;2023-06-10T17:30:20;11.93;;;10.77;;
48963;SDS011;34776;48.180;16.420;2023-06-10T17:32:45;11.75;;;10.65;;
48963;SDS011;34776;48.180;16.420;2023-06-10T17:35:11;11.65;;;10.55;;
48963;SDS011;34776;48.180;16.420;2023-06-10T17:37:36;10.85;;;9.80;;
48963;SDS011;34776;48.180;16.420;2023-06-10T18:07:01;11.95;;;10.75;;
48963;SDS011;34776;48.180;16.420;2023-06-10T18:09:26;11.57;;;10.48;;
48963;SDS011;34776;48.180;16.420;2023-06-10T18:11:54;11.85;;;10.63;;
48963;SDS011;34776;48.180;16.420;2023-06-10T18:14:20;12.77;;;10.55;;
48963;SDS011;34776;48.180;16.420;2023-06-10T18:16:45;11.90;;;10.73;;
48963;SDS011;34776;48.180;16.420;2023-06-10T18:26:56;11.20;;;8.95;;
48963;SDS011;34776;48.180;16.420;2023-06-10T18:29:21;11.07;;;9.98;;
48963;SDS011;34776;48.180;16.420;2023-06-10T18:34:22;11.23;;;10.13;;
48963;SDS011;34776;48.180;16.420;2023-06-10T18:36:47;10.60;;;9.60;;
48963;SDS011;34776;48.180;16.420;2023-06-10T18:39:12;12.15;;;10.93;;
48963;SDS011;34776;48.180;16.420;2023-06-10T18:41:38;12.40;;;11.20;;
48963;SDS011;34776;48.180;16.420;2023-06-10T18:44:03;12.43;;;11.30;;
48963;SDS011;34776;48.180;16.420;2023-06-10T18:46:28;11.90;;;9.93;;
48963;SDS011;34776;48.180;16.420;2023-06-10T18:48:54;13.23;;;9.75;;
48963;SDS011;34776;48.180;16.420;2023-06-10T18:51:19;11.75;;;10.55;;
48963;SDS011;34776;48.180;16.420;2023-06-10T18:53:46;12.57;;;10.52;;
48963;SDS011;34776;48.180;16.420;2023-06-10T18:56:11;10.80;;;9.75;;
48963;SDS011;34776;48.180;16.420;2023-06-10T18:58:38;12.15;;;10.85;;
48963;SDS011;34776;48.180;16.420;2023-06-10T19:01:04;12.30;;;11.10;;
48963;SDS011;34776;48.180;16.420;2023-06-10T19:18:54;12.15;;;10.90;;
48963;SDS011;34776;48.180;16.420;2023-06-10T19:47:06;11.30;;;9.98;;
48963;SDS011;34776;48.180;16.420;2023-06-10T19:49:31;11.02;;;9.70;;
48963;SDS011;34776;48.180;16.420;2023-06-10T19:51:57;11.63;;;9.98;;
48963;SDS011;34776;48.180;16.420;2023-06-10T19:54:22;10.30;;;9.10;;
48963;SDS011;34776;48.180;16.420;2023-06-10T19:59:23;10.40;;;9.40;;
48963;SDS011;34776;48.180;16.420;2023-06-10T20:04:23;11.52;;;9.82;;
48963;SDS011;34776;48.180;16.420;2023-06-10T20:06:49;10.07;;;9.18;;
48963;SDS011;34776;48.180;16.420;2023-06-10T20:09:15;10.07;;;8.93;;
48963;SDS011;34776;48.180;16.420;2023-06-10T20:11:40;11.32;;;9.63;;
48963;SDS011;34776;48.180;16.420;2023-06-10T20:14:05;11.15;;;10.02;;
48963;SDS011;34776;48.180;16.420;2023-06-10T20:16:31;11.20;;;10.05;;
48963;SDS011;34776;48.180;16.420;2023-06-10T20:18:56;9.52;;;8.50;;
48963;SDS011;34776;48.180;16.420;2023-06-10T20:21:22;11.18;;;8.48;;
48963;SDS011;34776;48.180;16.420;2023-06-10T20:23:47;9.77;;;8.88;;
48963;SDS011;34776;48.180;16.420;2023-06-10T20:26:13;10.60;;;9.32;;
48963;SDS011;34776;48.180;16.420;2023-06-10T20:28:38;10.50;;;9.50;;
48963;SDS011;34776;48.180;16.420;2023-06-10T20:31:04;10.27;;;9.25;;
48963;SDS011;34776;48.180;16.420;2023-06-10T20:33:30;10.82;;;8.93;;
48963;SDS011;34776;48.180;16.420;2023-06-10T20:35:56;9.98;;;8.70;;
48963;SDS011;34776;48.180;16.420;2023-06-10T20:38:22;10.43;;;9.38;;
48963;SDS011;34776;48.180;16.420;2023-06-10T20:40:47;11.75;;;9.18;;
48963;SDS011;34776;48.180;16.420;2023-06-10T20:45:48;8.75;;;7.75;;
48963;SDS011;34776;48.180;16.420;2023-06-10T20:48:14;10.98;;;8.65;;
48963;SDS011;34776;48.180;16.420;2023-06-10T20:50:40;9.48;;;8.18;;
48963;SDS011;34776;48.180;16.420;2023-06-10T20:53:05;10.00;;;9.00;;
48963;SDS011;34776;48.180;16.420;2023-06-10T20:55:31;9.88;;;8.68;;
48963;SDS011;34776;48.180;16.420;2023-06-10T21:00:31;9.13;;;8.27;;
48963;SDS011;34776;48.180;16.420;2023-06-10T21:02:57;9.82;;;8.65;;
48963;SDS011;34776;48.180;16.420;2023-06-10T21:05:22;9.70;;;8.75;;
48963;SDS011;34776;48.180;16.420;2023-06-10T21:07:47;9.68;;;8.25;;
48963;SDS011;34776;48.180;16.420;2023-06-10T21:13:16;9.60;;;8.70;;
48963;SDS011;34776;48.180;16.420;2023-06-10T21:15:41;8.95;;;8.15;;
48963;SDS011;34776;48.180;16.420;2023-06-10T21:18:06;12.00;;;10.18;;
48963;SDS011;34776;48.180;16.420;2023-06-10T21:20:31;10.98;;;9.10;;
48963;SDS011;34776;48.180;16.420;2023-06-10T21:22:57;9.10;;;8.30;;
48963;SDS011;34776;48.180;16.420;2023-06-10T21:25:22;9.80;;;9.00;;
48963;SDS011;34776;48.180;16.420;2023-06-10T21:35:27;9.70;;;8.23;;
48963;SDS011;34776;48.180;16.420;2023-06-10T21:37:52;10.25;;;9.25;;
48963;SDS011;34776;48.180;16.420;2023-06-10T21:40:18;9.63;;;8.75;;
48963;SDS011;34776;48.180;16.420;2023-06-10T21:42:43;9.88;;;8.65;;
48963;SDS011;34776;48.180;16.420;2023-06-10T21:45:09;10.48;;;9.10;;
48963;SDS011;34776;48.180;16.420;2023-06-10T21:47:35;12.20;;;10.25;;
48963;SDS011;34776;48.180;16.420;2023-06-10T21:52:35;10.32;;;9.23;;
48963;SDS011;34776;48.180;16.420;2023-06-10T21:55:01;10.45;;;8.75;;
48963;SDS011;34776;48.180;16.420;2023-06-10T22:00:03;14.57;;;9.85;;
48963;SDS011;34776;48.180;16.420;2023-06-10T22:17:54;9.55;;;8.18;;
48963;SDS011;34776;48.180;16.420;2023-06-10T22:20:20;8.18;;;7.13;;
48963;SDS011;34776;48.180;16.420;2023-06-10T22:22:45;9.30;;;8.48;;
48963;SDS011;34776;48.180;16.420;2023-06-10T22:25:10;11.52;;;8.40;;
48963;SDS011;34776;48.180;16.420;2023-06-10T22:27:36;8.43;;;7.32;;
48963;SDS011;34776;48.180;16.420;2023-06-10T22:30:01;7.72;;;7.03;;
48963;SDS011;34776;48.180;16.420;2023-06-10T22:32:27;10.07;;;7.22;;
48963;SDS011;34776;48.180;16.420;2023-06-10T22:34:52;8.35;;;7.53;;
48963;SDS011;34776;48.180;16.420;2023-06-10T22:37:18;8.77;;;7.90;;
48963;SDS011;34776;48.180;16.420;2023-06-10T22:39:45;9.27;;;8.07;;
48963;SDS011;34776;48.180;16.420;2023-06-10T22:42:10;9.82;;;7.28;;
48963;SDS011;34776;48.180;16.420;2023-06-10T22:44:36;8.82;;;7.15;;
48963;SDS011;34776;48.180;16.420;2023-06-10T22:47:02;11.60;;;10.45;;
48963;SDS011;34776;48.180;16.420;2023-06-10T23:12:42;7.95;;;6.85;;
48963;SDS011;34776;48.180;16.420;2023-06-10T23:15:08;7.95;;;6.35;;
48963;SDS011;34776;48.180;16.420;2023-06-10T23:17:33;8.35;;;6.47;;
48963;SDS011;34776;48.180;16.420;2023-06-10T23:22:34;8.38;;;5.70;;
48963;SDS011;34776;48.180;16.420;2023-06-10T23:48:02;8.65;;;6.07;;
48963;SDS011;34776;48.180;16.420;2023-06-10T23:50:27;6.88;;;6.18;;
